Time;durP1;ratioP1;P1;durP2;ratioP2;P2;SDS_P1;SDS_P2;PMS_P1;PMS_P2;Temp;Humidity;BMP_temperature;BMP_pressure;BME280_temperature;BME280_humidity;BME280_pressure;Samples;Min_cycle;Max_cycle;Signal;HPM_P1;HPM_P2
2021/01/16 00:01:38;;;;;;;36.00;18.80;;;1.20;74.10;;;;;;4972577;28;83942;-75
2021/01/16 00:04:05;;;;;;;34.53;19.65;;;1.10;74.10;;;;;;4971778;28;83400;-75
2021/01/16 00:06:31;;;;;;;34.40;20.05;;;1.00;74.10;;;;;;4971617;28;83771;-75
2021/01/16 00:08:57;;;;;;;38.00;20.88;;;0.90;74.10;;;;;;4990016;28;82720;-72
2021/01/16 00:11:24;;;;;;;38.85;19.17;;;0.90;74.20;;;;;;4969587;28;83726;-75
2021/01/16 00:13:50;;;;;;;38.88;21.98;;;0.90;74.20;;;;;;4971233;28;82509;-74
2021/01/16 00:16:16;;;;;;;36.35;20.45;;;0.90;74.30;;;;;;4988368;28;83424;-73
2021/01/16 00:18:41;;;;;;;36.08;19.45;;;0.90;74.40;;;;;;4970810;28;82697;-74
2021/01/16 00:21:07;;;;;;;32.67;17.65;;;0.90;74.40;;;;;;4969504;28;85681;-73
2021/01/16 00:23:33;;;;;;;36.25;19.13;;;0.90;74.30;;;;;;4987641;28;83059;-73
2021/01/16 00:25:59;;;;;;;36.35;18.88;;;0.90;74.30;;;;;;4987171;28;83394;-73
2021/01/16 00:28:31;;;;;;;32.22;18.70;;;0.90;74.20;;;;;;4969513;28;85419;-74
2021/01/16 00:31:01;;;;;;;34.25;18.33;;;0.90;74.20;;;;;;4969372;28;83503;-75
2021/01/16 00:33:29;;;;;;;32.60;17.70;;;0.80;74.20;;;;;;4987423;28;82559;-76
2021/01/16 00:35:57;;;;;;;42.15;20.35;;;0.80;74.50;;;;;;4987217;28;82587;-74
2021/01/16 00:38:24;;;;;;;33.42;19.85;;;0.80;74.40;;;;;;4970591;28;86842;-75
2021/01/16 00:40:50;;;;;;;40.83;19.58;;;0.90;74.40;;;;;;4969867;28;82574;-75
2021/01/16 00:43:16;;;;;;;36.70;19.40;;;0.80;74.40;;;;;;4969660;28;82886;-75
2021/01/16 00:45:44;;;;;;;35.92;19.48;;;0.80;74.50;;;;;;4968929;28;83596;-73
2021/01/16 00:48:15;;;;;;;33.78;18.75;;;0.80;74.60;;;;;;4970283;28;85673;-74
2021/01/16 00:50:43;;;;;;;41.13;21.10;;;0.80;74.70;;;;;;4969841;28;86214;-75
2021/01/16 00:53:09;;;;;;;34.28;19.13;;;0.80;74.70;;;;;;4991929;28;82831;-74
2021/01/16 00:55:35;;;;;;;35.67;19.17;;;0.80;74.60;;;;;;4992450;28;83338;-74
2021/01/16 00:58:18;;;;;;;33.00;19.00;;;0.80;74.70;;;;;;4972906;28;84962;-74
2021/01/16 01:00:46;;;;;;;33.60;18.85;;;0.70;74.70;;;;;;4970263;28;84440;-72
2021/01/16 01:03:30;;;;;;;34.03;17.90;;;0.70;74.50;;;;;;4988210;28;83265;-74
2021/01/16 01:05:57;;;;;;;32.92;17.45;;;0.70;74.50;;;;;;4973958;28;85620;-74
2021/01/16 01:08:28;;;;;;;35.70;18.20;;;0.60;74.60;;;;;;4975647;28;84174;-74
2021/01/16 01:10:54;;;;;;;33.05;18.05;;;0.60;74.70;;;;;;4976048;28;82563;-74
2021/01/16 01:13:23;;;;;;;34.83;17.38;;;0.60;74.70;;;;;;4984328;28;84156;-75
2021/01/16 01:15:49;;;;;;;30.10;16.55;;;0.60;74.50;;;;;;4985766;28;85439;-75
2021/01/16 01:18:16;;;;;;;32.58;17.85;;;0.50;74.30;;;;;;5001971;28;82514;-74
2021/01/16 01:20:42;;;;;;;36.60;17.55;;;0.40;74.40;;;;;;4966758;28;84015;-75
2021/01/16 01:23:08;;;;;;;35.20;18.25;;;0.40;74.50;;;;;;4995654;28;82388;-75
2021/01/16 01:25:34;;;;;;;30.52;15.88;;;0.30;74.50;;;;;;4959097;28;85965;-75
2021/01/16 01:28:02;;;;;;;30.92;16.67;;;0.30;74.70;;;;;;4993120;28;82823;-72
2021/01/16 01:30:30;;;;;;;28.02;16.85;;;0.30;74.80;;;;;;4975212;28;83986;-73
2021/01/16 01:32:57;;;;;;;28.83;16.65;;;0.30;74.70;;;;;;4992692;28;82802;-73
2021/01/16 01:35:24;;;;;;;30.52;15.80;;;0.30;74.70;;;;;;4974862;28;82599;-74
2021/01/16 01:37:55;;;;;;;26.92;15.15;;;0.30;74.60;;;;;;4959746;28;83148;-73
2021/01/16 01:40:23;;;;;;;32.33;15.77;;;0.30;74.40;;;;;;4974689;28;83641;-74
2021/01/16 01:42:51;;;;;;;27.90;16.00;;;0.30;74.40;;;;;;4973688;28;84369;-73
2021/01/16 01:45:20;;;;;;;27.50;16.63;;;0.30;74.40;;;;;;4974186;28;85665;-72
2021/01/16 01:47:47;;;;;;;28.17;15.27;;;0.30;74.40;;;;;;4975396;28;82676;-72
2021/01/16 01:50:15;;;;;;;28.33;15.30;;;0.30;74.30;;;;;;4973958;28;83798;-72
2021/01/16 01:52:41;;;;;;;33.88;16.38;;;0.20;74.10;;;;;;4975922;28;82876;-73
2021/01/16 01:55:10;;;;;;;29.60;15.73;;;0.10;74.10;;;;;;4977687;28;84687;-72
2021/01/16 01:57:44;;;;;;;29.48;15.32;;;0.10;74.20;;;;;;4976927;28;85122;-73
2021/01/16 02:00:13;;;;;;;28.65;16.15;;;0.10;74.10;;;;;;4976321;28;83439;-74
2021/01/16 02:02:43;;;;;;;29.58;16.10;;;0.10;74.00;;;;;;4974291;28;82557;-73
2021/01/16 02:05:12;;;;;;;27.90;16.23;;;0.00;73.90;;;;;;4975254;28;85903;-74
2021/01/16 02:07:38;;;;;;;26.83;16.00;;;0.00;74.00;;;;;;4974266;28;84943;-74
2021/01/16 02:10:19;;;;;;;29.02;16.58;;;0.00;74.10;;;;;;4988551;28;83955;-76
2021/01/16 02:12:45;;;;;;;31.00;18.27;;;-3276.70;74.10;;;;;;4987819;28;82433;-75
2021/01/16 02:15:30;;;;;;;33.58;16.33;;;-3276.70;74.20;;;;;;4988873;28;83770;-74
2021/01/16 02:18:06;;;;;;;28.48;16.85;;;-3276.60;74.20;;;;;;4969908;28;84468;-75
2021/01/16 02:20:36;;;;;;;31.13;16.10;;;-3276.60;74.20;;;;;;4972311;28;85370;-74
2021/01/16 02:23:11;;;;;;;31.17;16.27;;;-3276.70;74.20;;;;;;4969446;28;83707;-75
2021/01/16 02:25:40;;;;;;;28.27;15.80;;;-3276.70;74.10;;;;;;4986981;28;82934;-75
2021/01/16 02:28:10;;;;;;;28.43;15.63;;;-3276.70;74.10;;;;;;4987511;28;82420;-74
2021/01/16 02:30:38;;;;;;;29.85;16.05;;;-3276.70;73.90;;;;;;4971178;28;82622;-74
2021/01/16 02:33:07;;;;;;;30.13;16.33;;;-3276.60;73.70;;;;;;4969896;28;83879;-73
2021/01/16 02:35:40;;;;;;;32.10;15.43;;;-3276.60;73.80;;;;;;4970077;28;85378;-76
2021/01/16 02:38:33;;;;;;;33.23;16.97;;;-3276.60;73.80;;;;;;4969608;28;83505;-73
2021/01/16 02:41:26;;;;;;;27.17;15.67;;;-3276.60;73.60;;;;;;4987933;28;83482;-76
2021/01/16 02:44:04;;;;;;;26.20;16.00;;;-3276.50;73.70;;;;;;4972155;28;83022;-75
2021/01/16 02:46:48;;;;;;;37.42;16.95;;;-3276.40;73.70;;;;;;4974154;28;82605;-76
2021/01/16 02:49:29;;;;;;;29.50;16.73;;;-3276.40;74.00;;;;;;4987110;28;83188;-76
2021/01/16 02:52:01;;;;;;;31.20;17.30;;;-3276.50;73.90;;;;;;4986071;28;82829;-77
2021/01/16 02:54:27;;;;;;;31.57;16.23;;;-3276.40;73.80;;;;;;4987236;28;82993;-74
2021/01/16 02:56:54;;;;;;;27.23;15.10;;;-3276.50;73.90;;;;;;4968622;28;83443;-73
2021/01/16 02:59:20;;;;;;;31.83;16.50;;;-3276.50;73.80;;;;;;4975178;28;84185;-73
2021/01/16 03:01:46;;;;;;;33.40;17.10;;;-3276.50;73.80;;;;;;4984279;28;84385;-78
2021/01/16 03:04:13;;;;;;;27.97;15.80;;;-3276.60;73.80;;;;;;4993513;28;83631;-73
2021/01/16 03:06:48;;;;;;;31.33;15.97;;;-3276.50;73.80;;;;;;4997996;28;83068;-73
2021/01/16 03:09:14;;;;;;;35.03;17.17;;;-3276.60;73.90;;;;;;4991190;28;82938;-73
2021/01/16 03:11:44;;;;;;;35.10;18.73;;;-3276.60;73.80;;;;;;4953438;28;83425;-73
2021/01/16 03:14:12;;;;;;;35.67;16.93;;;-3276.60;73.90;;;;;;4953050;28;83455;-73
2021/01/16 03:16:52;;;;;;;32.88;17.70;;;-3276.60;74.00;;;;;;4954093;28;87002;-72
2021/01/16 03:19:28;;;;;;;33.45;16.75;;;-3276.70;74.00;;;;;;4940914;28;82715;-72
2021/01/16 03:21:54;;;;;;;33.03;16.90;;;-3276.60;74.00;;;;;;4931467;28;84230;-73
2021/01/16 03:24:20;;;;;;;33.53;18.33;;;-3276.60;73.90;;;;;;4954112;28;82722;-73
2021/01/16 03:26:46;;;;;;;35.42;17.73;;;-3276.60;73.90;;;;;;4954016;28;83815;-73
2021/01/16 03:29:12;;;;;;;33.28;17.05;;;-3276.60;73.90;;;;;;4973745;28;83510;-73
2021/01/16 03:31:38;;;;;;;32.75;17.42;;;-3276.60;74.00;;;;;;4935904;28;83445;-73
2021/01/16 03:34:04;;;;;;;30.83;16.77;;;-3276.60;73.90;;;;;;4969659;28;82894;-73
2021/01/16 03:36:31;;;;;;;28.83;15.50;;;-3276.50;73.40;;;;;;4951686;28;84830;-73
2021/01/16 03:38:57;;;;;;;29.73;15.40;;;-3276.50;73.20;;;;;;4969538;28;82536;-72
2021/01/16 03:41:23;;;;;;;29.20;15.80;;;-3276.40;72.80;;;;;;4951357;28;83892;-73
2021/01/16 03:43:48;;;;;;;28.80;15.60;;;-3276.30;72.90;;;;;;4972094;28;82980;-72
2021/01/16 03:46:14;;;;;;;29.30;15.33;;;-3276.30;72.80;;;;;;4955579;28;84902;-72
2021/01/16 03:48:41;;;;;;;30.13;15.17;;;-3276.30;72.70;;;;;;4957940;28;82987;-73
2021/01/16 03:51:07;;;;;;;23.83;14.07;;;-3276.20;72.60;;;;;;4955810;28;84665;-74
2021/01/16 03:53:32;;;;;;;27.43;14.87;;;-3276.20;72.40;;;;;;4971606;28;83027;-73
2021/01/16 03:55:58;;;;;;;26.27;15.00;;;-3276.20;72.30;;;;;;4952491;28;84568;-75
2021/01/16 03:58:24;;;;;;;28.27;15.20;;;-3276.20;72.30;;;;;;4969560;28;83153;-73
2021/01/16 04:00:50;;;;;;;28.23;14.57;;;-3276.20;72.30;;;;;;4973221;28;83258;-73
2021/01/16 04:03:16;;;;;;;28.83;16.00;;;-3276.20;72.00;;;;;;4952387;28;83444;-74
2021/01/16 04:05:41;;;;;;;32.20;14.80;;;-3276.10;72.00;;;;;;4951549;28;83792;-74
2021/01/16 04:08:07;;;;;;;28.93;15.23;;;-3276.10;72.10;;;;;;4970441;28;82708;-73
2021/01/16 04:10:33;;;;;;;31.23;16.73;;;-3276.10;72.40;;;;;;4978369;28;82581;-74
2021/01/16 04:13:00;;;;;;;28.48;16.20;;;-3276.20;72.20;;;;;;4990124;28;82958;-74
2021/01/16 04:15:26;;;;;;;30.47;15.10;;;-3276.20;72.30;;;;;;4974749;28;83997;-74
2021/01/16 04:17:52;;;;;;;23.90;15.17;;;-3276.20;72.30;;;;;;4990814;28;82876;-74
2021/01/16 04:20:18;;;;;;;31.23;15.27;;;-3276.20;72.40;;;;;;4972265;28;83307;-73
2021/01/16 04:22:43;;;;;;;26.17;14.97;;;-3276.20;72.50;;;;;;4971448;28;82539;-74
2021/01/16 04:25:14;;;;;;;33.00;18.13;;;-3276.30;72.50;;;;;;4971112;28;82784;-74
2021/01/16 04:27:40;;;;;;;31.10;16.47;;;-3276.30;72.50;;;;;;4954518;28;85795;-74
2021/01/16 04:30:06;;;;;;;31.43;15.97;;;-3276.30;72.50;;;;;;4989802;28;82551;-75
2021/01/16 04:32:32;;;;;;;31.00;17.47;;;-3276.30;72.60;;;;;;4990443;28;82326;-74
2021/01/16 04:34:58;;;;;;;28.93;16.37;;;-3276.30;72.60;;;;;;4972690;28;84387;-75
2021/01/16 04:37:23;;;;;;;32.03;16.77;;;-3276.30;72.60;;;;;;4992277;28;82352;-74
2021/01/16 04:39:49;;;;;;;30.30;17.70;;;-3276.30;72.70;;;;;;4973574;28;85455;-75
2021/01/16 04:42:15;;;;;;;37.53;17.70;;;-3276.30;72.80;;;;;;4979999;28;85397;-76
2021/01/16 04:44:44;;;;;;;30.93;17.77;;;-3276.40;72.70;;;;;;4981772;28;82477;-74
2021/01/16 04:47:24;;;;;;;29.07;16.33;;;-3276.40;72.80;;;;;;5001578;28;82508;-74
2021/01/16 04:49:51;;;;;;;31.47;16.77;;;-3276.40;72.70;;;;;;5000271;28;82663;-75
2021/01/16 04:52:29;;;;;;;29.50;16.50;;;-3276.40;72.60;;;;;;4981478;28;82700;-75
2021/01/16 04:54:55;;;;;;;27.27;15.60;;;-3276.50;72.70;;;;;;4979361;28;83180;-73
2021/01/16 04:57:29;;;;;;;29.27;16.37;;;-3276.40;72.50;;;;;;4959608;28;85532;-75
2021/01/16 04:59:57;;;;;;;29.17;16.13;;;-3276.50;72.30;;;;;;4957990;28;82497;-73
2021/01/16 05:02:23;;;;;;;29.53;15.33;;;-3276.50;72.00;;;;;;4972390;28;83202;-73
2021/01/16 05:04:53;;;;;;;27.97;15.63;;;-3276.40;71.80;;;;;;4990814;28;83179;-72
2021/01/16 05:07:19;;;;;;;28.20;14.30;;;-3276.50;71.40;;;;;;4992173;28;82450;-74
2021/01/16 05:09:46;;;;;;;30.67;16.07;;;-3276.40;70.80;;;;;;4975387;28;84418;-74
2021/01/16 05:12:23;;;;;;;27.17;14.17;;;-3276.30;70.80;;;;;;4989204;28;83018;-74
2021/01/16 05:15:06;;;;;;;24.35;14.35;;;-3276.20;70.80;;;;;;4972096;28;85795;-74
2021/01/16 05:17:40;;;;;;;26.00;13.63;;;-3276.20;70.80;;;;;;4989256;28;82279;-73
2021/01/16 05:20:08;;;;;;;25.57;13.70;;;-3276.10;70.80;;;;;;4989172;28;83368;-74
2021/01/16 05:22:34;;;;;;;24.70;13.67;;;-3275.90;70.70;;;;;;4989735;28;83481;-73
2021/01/16 05:25:06;;;;;;;26.23;14.33;;;-3275.90;70.90;;;;;;4988823;28;83300;-74
2021/01/16 05:27:35;;;;;;;23.90;13.27;;;-3275.90;71.10;;;;;;4988221;28;82483;-75
2021/01/16 05:30:06;;;;;;;24.50;13.77;;;-3275.90;70.80;;;;;;4970667;28;83550;-73
2021/01/16 05:32:34;;;;;;;27.07;12.90;;;-3275.90;70.80;;;;;;4972019;28;82683;-74
2021/01/16 05:35:21;;;;;;;29.10;13.93;;;-3275.90;70.80;;;;;;4970139;28;83879;-75
2021/01/16 05:37:48;;;;;;;24.47;13.60;;;-3276.00;70.70;;;;;;4987786;28;82516;-74
2021/01/16 05:40:17;;;;;;;23.00;13.73;;;-3276.00;70.50;;;;;;4969286;28;85684;-74
2021/01/16 05:42:47;;;;;;;26.87;13.90;;;-3275.90;70.60;;;;;;4971556;28;85291;-75
2021/01/16 05:45:13;;;;;;;29.92;15.00;;;-3275.90;70.70;;;;;;4972190;28;84361;-78
2021/01/16 05:47:43;;;;;;;25.20;13.93;;;-3276.00;70.70;;;;;;4985796;28;82621;-77
2021/01/16 05:50:10;;;;;;;27.67;13.87;;;-3276.00;70.80;;;;;;4994253;28;83144;-80
2021/01/16 05:52:43;;;;;;;23.37;13.10;;;-3276.00;70.60;;;;;;4979137;28;82479;-80
2021/01/16 05:55:09;;;;;;;25.63;13.13;;;-3276.00;70.70;;;;;;4981443;28;85159;-78
2021/01/16 05:57:44;;;;;;;25.27;12.80;;;-3276.00;70.60;;;;;;5001567;28;83514;-78
2021/01/16 06:00:17;;;;;;;24.67;14.47;;;-3276.00;70.70;;;;;;4986126;28;84770;-78
2021/01/16 06:02:45;;;;;;;51.50;14.43;;;-3276.00;70.70;;;;;;5002921;28;82233;-76
2021/01/16 06:05:11;;;;;;;27.20;14.03;;;-3276.00;70.90;;;;;;4965921;28;82588;-74
2021/01/16 06:07:38;;;;;;;25.70;13.02;;;-3276.00;70.90;;;;;;4985126;28;82474;-76
2021/01/16 06:10:13;;;;;;;28.87;14.43;;;-3276.00;71.20;;;;;;4972978;28;84284;-73
2021/01/16 06:12:40;;;;;;;27.40;12.90;;;-3276.00;71.30;;;;;;4973775;28;83422;-73
2021/01/16 06:15:19;;;;;;;25.63;12.50;;;-3276.00;71.40;;;;;;4991431;28;83891;-73
2021/01/16 06:17:47;;;;;;;24.50;13.77;;;-3276.00;71.60;;;;;;4973589;28;84125;-73
2021/01/16 06:20:18;;;;;;;28.83;14.13;;;-3276.00;71.40;;;;;;4973165;28;82703;-74
2021/01/16 06:22:49;;;;;;;25.80;14.15;;;-3276.00;71.50;;;;;;4974783;28;82442;-73
2021/01/16 06:25:23;;;;;;;24.70;13.10;;;-3276.00;71.80;;;;;;4973191;28;83669;-73
2021/01/16 06:27:50;;;;;;;23.20;12.83;;;-3276.10;71.50;;;;;;4972516;28;83734;-73
2021/01/16 06:30:21;;;;;;;24.63;13.50;;;-3276.10;71.20;;;;;;4971950;28;85445;-73
2021/01/16 06:32:53;;;;;;;26.97;13.53;;;-3276.00;71.00;;;;;;4987130;28;83007;-73
2021/01/16 06:35:20;;;;;;;28.27;13.43;;;-3276.00;71.20;;;;;;4969933;28;82705;-73
2021/01/16 06:37:48;;;;;;;27.77;13.27;;;-3276.00;71.20;;;;;;4987225;28;83096;-73
2021/01/16 06:40:31;;;;;;;29.60;13.70;;;-3276.00;71.30;;;;;;4989481;28;82533;-73
2021/01/16 06:42:58;;;;;;;;;;;-3275.90;71.20;;;;;;4955804;28;82760;-72
2021/01/16 06:45:27;;;;;;;23.47;11.90;;;-3275.80;70.70;;;;;;4988974;28;76544;-72
2021/01/16 06:48:17;;;;;;;24.10;12.83;;;-3275.70;71.40;;;;;;4974634;28;82654;-72
2021/01/16 06:50:46;;;;;;;26.93;13.60;;;-3275.70;71.40;;;;;;4993716;28;83317;-72
2021/01/16 06:53:26;;;;;;;28.13;13.70;;;-3275.70;71.10;;;;;;4978272;28;83456;-72
2021/01/16 06:56:06;;;;;;;32.20;12.57;;;-3275.60;71.30;;;;;;4979276;28;82613;-72
2021/01/16 06:58:38;;;;;;;29.30;14.77;;;-3275.50;70.90;;;;;;4996752;28;82305;-72
2021/01/16 07:01:06;;;;;;;23.73;13.10;;;-3275.40;71.10;;;;;;4977783;28;83289;-72
2021/01/16 07:03:38;;;;;;;22.90;12.13;;;-3275.30;70.60;;;;;;4974941;28;83446;-72
2021/01/16 07:06:06;;;;;;;25.67;13.87;;;-3275.30;70.80;;;;;;4975799;28;85921;-72
2021/01/16 07:08:34;;;;;;;21.27;11.97;;;-3275.20;70.70;;;;;;4976840;28;84207;-71
2021/01/16 07:11:00;;;;;;;26.17;14.00;;;-3275.20;70.80;;;;;;4991373;28;83326;-71
2021/01/16 07:13:31;;;;;;;24.47;13.10;;;-3275.10;71.00;;;;;;4974896;28;83625;-72
2021/01/16 07:16:00;;;;;;;28.30;13.13;;;-3275.00;71.10;;;;;;4993773;28;82675;-72
2021/01/16 07:18:27;;;;;;;23.87;13.30;;;-3275.00;71.20;;;;;;4993661;28;82971;-72
2021/01/16 07:21:19;;;;;;;22.90;11.80;;;-3275.00;71.50;;;;;;4975614;28;84014;-71
2021/01/16 07:23:45;;;;;;;24.53;13.10;;;-3275.00;71.50;;;;;;4998355;28;83564;-72
2021/01/16 07:26:14;;;;;;;24.83;13.53;;;-3275.00;71.60;;;;;;4980796;28;85315;-72
2021/01/16 07:28:42;;;;;;;25.37;13.13;;;-3275.00;71.50;;;;;;4979215;28;82868;-71
2021/01/16 07:31:09;;;;;;;29.97;13.70;;;-3275.10;71.60;;;;;;4998814;28;82493;-71
2021/01/16 07:33:37;;;;;;;27.03;13.33;;;-3275.10;71.60;;;;;;4962237;28;83311;-71
2021/01/16 07:36:04;;;;;;;23.73;12.97;;;-3275.10;71.50;;;;;;4993691;28;83466;-73
2021/01/16 07:38:33;;;;;;;22.43;12.90;;;-3275.10;71.50;;;;;;4958320;28;83417;-72
2021/01/16 07:41:01;;;;;;;23.40;13.13;;;-3275.10;71.80;;;;;;4975900;28;85784;-72
2021/01/16 07:43:56;;;;;;;22.93;12.87;;;-3275.10;71.90;;;;;;4993014;28;82600;-72
2021/01/16 07:46:31;;;;;;;25.73;13.70;;;-3275.20;72.00;;;;;;4974184;28;83401;-75
2021/01/16 07:48:59;;;;;;;22.93;12.70;;;-3275.20;72.00;;;;;;4979567;28;83521;-72
2021/01/16 07:51:33;;;;;;;28.17;12.80;;;-3275.20;72.00;;;;;;4974420;28;85733;-71
2021/01/16 07:54:02;;;;;;;25.97;13.90;;;-3275.30;72.10;;;;;;4972213;28;83517;-73
2021/01/16 07:57:02;;;;;;;23.47;12.77;;;-3275.30;72.20;;;;;;4970895;28;83710;-75
2021/01/16 07:59:49;;;;;;;27.20;14.40;;;-3275.40;72.30;;;;;;4972221;28;84415;-73
2021/01/16 08:02:30;;;;;;;28.77;13.80;;;-3275.50;72.30;;;;;;4972068;28;84058;-74
2021/01/16 08:05:25;;;;;;;23.63;13.23;;;-3275.50;72.20;;;;;;4974024;28;85764;-73
2021/01/16 08:08:14;;;;;;;29.87;15.13;;;-3275.70;72.00;;;;;;4973065;28;83679;-73
2021/01/16 08:10:43;;;;;;;27.63;13.33;;;-3275.70;71.60;;;;;;4973939;28;85208;-72
2021/01/16 08:13:11;;;;;;;30.30;18.47;;;-3275.80;71.50;;;;;;4970601;28;82635;-72
2021/01/16 08:15:41;;;;;;;32.20;17.83;;;-3275.80;71.50;;;;;;4990062;28;82791;-71
2021/01/16 08:18:17;;;;;;;29.10;13.97;;;-3275.80;71.50;;;;;;4969494;28;83904;-70
2021/01/16 08:20:46;;;;;;;27.20;14.40;;;-3275.90;71.10;;;;;;4969771;28;85672;-71
2021/01/16 08:23:24;;;;;;;29.43;15.60;;;-3276.10;70.90;;;;;;4991317;28;82698;-71
2021/01/16 08:25:52;;;;;;;33.93;16.60;;;-3276.10;70.50;;;;;;4973418;28;83427;-70
2021/01/16 08:28:26;;;;;;;27.13;15.20;;;-3276.10;70.40;;;;;;4987321;28;83216;-75
2021/01/16 08:30:52;;;;;;;31.10;16.03;;;-3276.20;70.20;;;;;;4968803;28;85836;-73
2021/01/16 08:33:36;;;;;;;30.80;16.17;;;-3276.20;70.30;;;;;;4968676;28;85292;-74
2021/01/16 08:36:17;;;;;;;32.83;15.83;;;-3276.30;69.90;;;;;;4968923;28;83192;-70
2021/01/16 08:38:44;;;;;;;31.70;16.13;;;-3276.40;69.80;;;;;;4969529;28;83762;-70
2021/01/16 08:41:10;;;;;;;30.23;15.70;;;-3276.40;69.60;;;;;;4970382;28;83387;-70
2021/01/16 08:43:39;;;;;;;27.80;15.17;;;-3276.50;69.30;;;;;;4970154;28;85536;-73
2021/01/16 08:46:31;;;;;;;26.13;14.23;;;-3276.60;68.90;;;;;;4987254;28;82971;-71
2021/01/16 08:48:58;;;;;;;33.10;17.17;;;0.00;68.50;;;;;;4969392;28;82668;-72
2021/01/16 08:51:32;;;;;;;29.10;15.10;;;0.10;68.00;;;;;;4969874;28;83171;-72
2021/01/16 08:54:12;;;;;;;30.17;16.57;;;0.30;67.80;;;;;;4986280;28;83219;-70
2021/01/16 08:56:39;;;;;;;27.67;15.07;;;0.40;67.60;;;;;;4987071;28;83057;-71
2021/01/16 08:59:29;;;;;;;31.27;17.33;;;0.50;67.50;;;;;;4968566;28;83424;-71
2021/01/16 09:02:17;;;;;;;39.93;18.50;;;0.70;66.80;;;;;;4968356;28;85139;-71
2021/01/16 09:04:44;;;;;;;35.77;18.67;;;0.90;66.40;;;;;;4968091;28;83766;-70
2021/01/16 09:07:18;;;;;;;41.55;21.42;;;1.00;66.20;;;;;;4968954;28;85466;-71
2021/01/16 09:09:59;;;;;;;38.83;20.10;;;1.10;65.70;;;;;;4969362;28;85595;-71
2021/01/16 09:12:39;;;;;;;43.00;21.20;;;1.10;65.20;;;;;;4987302;28;82485;-66
2021/01/16 09:15:34;;;;;;;39.40;18.77;;;1.20;65.60;;;;;;4968309;28;83353;-63
2021/01/16 09:18:08;;;;;;;35.77;17.63;;;1.20;65.40;;;;;;4986614;28;82523;-60
2021/01/16 09:20:39;;;;;;;37.25;18.92;;;1.40;65.10;;;;;;4968622;28;85234;-63
2021/01/16 09:23:23;;;;;;;34.90;18.10;;;1.40;64.70;;;;;;4968112;28;85027;-66
2021/01/16 09:25:56;;;;;;;35.20;18.10;;;1.80;63.90;;;;;;4969308;28;85660;-63
2021/01/16 09:28:40;;;;;;;;;;;2.00;63.40;;;;;;4988051;28;82412;-62
2021/01/16 09:31:36;;;;;;;36.97;19.38;;;2.10;63.10;;;;;;4993169;28;75453;-63
2021/01/16 09:34:12;;;;;;;40.67;19.23;;;2.10;62.90;;;;;;4968484;28;82761;-62
2021/01/16 09:36:58;;;;;;;38.53;20.13;;;2.20;62.60;;;;;;4986118;28;83633;-64
2021/01/16 09:39:28;;;;;;;35.67;18.67;;;2.40;62.50;;;;;;4985745;28;82349;-64
2021/01/16 09:41:56;;;;;;;32.88;17.92;;;2.90;61.20;;;;;;4985447;28;83199;-65
2021/01/16 09:44:42;;;;;;;35.47;19.33;;;3.20;60.60;;;;;;4985640;28;82907;-65
2021/01/16 09:47:26;;;;;;;37.55;18.98;;;3.60;59.60;;;;;;4985755;28;83320;-69
2021/01/16 09:50:01;;;;;;;36.75;19.58;;;3.90;58.90;;;;;;4966790;28;85772;-65
2021/01/16 09:52:31;;;;;;;35.85;19.70;;;4.20;58.00;;;;;;4964790;28;84081;-63
2021/01/16 09:54:57;;;;;;;40.17;21.30;;;4.70;57.30;;;;;;4966049;28;83267;-66
2021/01/16 09:57:49;;;;;;;38.55;20.70;;;5.30;55.80;;;;;;4967934;28;85937;-63
2021/01/16 10:00:29;;;;;;;35.55;20.13;;;5.80;54.80;;;;;;4983482;28;82620;-64
2021/01/16 10:03:01;;;;;;;37.72;18.80;;;6.20;52.80;;;;;;4968901;28;82462;-63
2021/01/16 10:05:27;;;;;;;29.85;17.95;;;6.40;51.90;;;;;;4987055;28;83321;-63
2021/01/16 10:07:54;;;;;;;39.10;19.70;;;6.40;51.30;;;;;;4967216;28;85849;-63
2021/01/16 10:10:20;;;;;;;42.60;19.00;;;6.70;50.60;;;;;;4967853;28;83227;-64
2021/01/16 10:12:59;;;;;;;37.10;20.50;;;6.80;50.40;;;;;;4966168;28;85644;-63
2021/01/16 10:15:34;;;;;;;36.85;19.85;;;7.10;49.70;;;;;;4967074;28;82756;-62
2021/01/16 10:18:05;;;;;;;41.00;22.42;;;7.60;48.20;;;;;;4985403;28;83351;-66
2021/01/16 10:20:33;;;;;;;37.97;23.83;;;7.80;48.30;;;;;;4967237;28;82744;-63
2021/01/16 10:23:04;;;;;;;47.33;28.38;;;8.00;48.00;;;;;;4984152;28;83349;-65
2021/01/16 10:25:42;;;;;;;47.78;28.70;;;8.40;47.30;;;;;;4984972;28;82854;-65
2021/01/16 10:28:24;;;;;;;49.70;28.48;;;9.00;46.30;;;;;;4966885;28;85722;-66
2021/01/16 10:31:09;;;;;;;48.05;29.05;;;9.90;44.30;;;;;;4984289;28;82909;-65
2021/01/16 10:33:39;;;;;;;50.33;28.50;;;10.70;42.70;;;;;;4984958;28;83265;-64
2021/01/16 10:36:10;;;;;;;49.33;29.50;;;10.90;41.90;;;;;;4984496;28;83062;-64
2021/01/16 10:38:53;;;;;;;49.05;30.67;;;11.00;41.90;;;;;;4984657;28;82489;-67
2021/01/16 10:41:21;;;;;;;47.03;28.57;;;11.40;41.50;;;;;;4958513;28;85149;-66
2021/01/16 10:43:58;;;;;;;49.42;30.95;;;12.00;40.00;;;;;;4966724;28;85339;-65
2021/01/16 10:46:29;;;;;;;48.88;29.60;;;13.00;38.40;;;;;;4984694;28;82870;-69
2021/01/16 10:49:10;;;;;;;47.40;31.77;;;14.10;36.30;;;;;;4984358;28;83218;-68
2021/01/16 10:51:41;;;;;;;49.40;32.38;;;15.10;34.80;;;;;;4984585;28;82924;-66
2021/01/16 10:54:14;;;;;;;48.42;31.70;;;15.90;33.40;;;;;;4984823;28;83853;-65
2021/01/16 10:56:44;;;;;;;48.80;30.83;;;16.60;32.30;;;;;;4984814;28;83509;-64
2021/01/16 10:59:13;;;;;;;52.45;33.17;;;16.80;32.10;;;;;;4966635;28;83471;-67
2021/01/16 11:01:49;;;;;;;43.33;30.80;;;17.20;31.40;;;;;;4985440;28;82792;-66
2021/01/16 11:04:24;;;;;;;41.58;28.77;;;17.60;31.00;;;;;;4985879;28;83122;-70
2021/01/16 11:06:55;;;;;;;47.45;30.88;;;17.00;31.50;;;;;;4967361;28;83226;-64
2021/01/16 11:09:33;;;;;;;43.20;29.40;;;17.10;31.80;;;;;;4966653;28;85646;-63
2021/01/16 11:12:00;;;;;;;48.80;29.48;;;16.90;31.80;;;;;;4984542;28;82644;-69
2021/01/16 11:14:36;;;;;;;46.38;30.40;;;17.90;30.60;;;;;;4966673;28;82760;-66
2021/01/16 11:17:07;;;;;;;43.33;29.33;;;18.90;29.50;;;;;;4966330;28;85323;-68
2021/01/16 11:19:35;;;;;;;43.20;28.90;;;19.80;28.40;;;;;;4966745;28;85923;-64
2021/01/16 11:22:09;;;;;;;45.35;31.33;;;20.60;27.50;;;;;;4966169;28;83091;-66
2021/01/16 11:24:53;;;;;;;46.25;30.10;;;21.30;26.80;;;;;;4966766;28;82527;-67
2021/01/16 11:27:30;;;;;;;43.92;30.08;;;21.70;26.90;;;;;;4967325;28;82953;-65
2021/01/16 11:30:14;;;;;;;45.78;30.63;;;21.80;26.20;;;;;;4967540;28;83814;-66
2021/01/16 11:32:40;;;;;;;46.28;31.80;;;22.00;26.40;;;;;;4966566;28;83201;-64
2021/01/16 11:35:08;;;;;;;46.08;30.02;;;22.90;25.20;;;;;;4970187;28;83812;-64
2021/01/16 11:37:49;;;;;;;49.70;31.80;;;23.00;25.00;;;;;;4970345;28;84879;-65
2021/01/16 11:40:26;;;;;;;43.10;30.65;;;22.20;25.80;;;;;;4969499;28;83984;-66
2021/01/16 11:43:05;;;;;;;49.17;30.95;;;22.10;26.00;;;;;;4969761;28;82501;-63
2021/01/16 11:45:31;;;;;;;46.33;32.05;;;23.10;25.00;;;;;;4967332;28;83311;-64
2021/01/16 11:47:59;;;;;;;45.58;30.40;;;24.00;24.20;;;;;;4966585;28;84950;-68
2021/01/16 11:50:37;;;;;;;51.45;32.67;;;23.70;24.50;;;;;;4968571;28;83426;-66
2021/01/16 11:53:09;;;;;;;48.55;30.85;;;21.90;26.30;;;;;;4968445;28;85620;-70
2021/01/16 11:55:35;;;;;;;47.72;30.90;;;21.20;27.00;;;;;;4986487;28;83307;-66
2021/01/16 11:58:03;;;;;;;41.90;30.00;;;21.80;26.80;;;;;;4968104;28;83147;-63
2021/01/16 12:00:29;;;;;;;45.95;29.85;;;22.90;25.60;;;;;;4986126;28;83736;-64
2021/01/16 12:02:56;;;;;;;41.72;29.23;;;23.40;25.00;;;;;;4985838;28;83765;-68
2021/01/16 12:05:25;;;;;;;43.42;30.95;;;24.10;24.30;;;;;;4968217;28;83389;-66
2021/01/16 12:07:53;;;;;;;48.20;32.67;;;25.10;23.70;;;;;;4968006;28;82672;-66
2021/01/16 12:10:21;;;;;;;43.40;28.95;;;24.60;23.80;;;;;;4967634;28;85608;-67
2021/01/16 12:12:48;;;;;;;39.90;27.35;;;24.20;24.40;;;;;;4968155;28;84682;-66
2021/01/16 12:15:24;;;;;;;40.15;28.73;;;23.60;24.90;;;;;;4984944;28;82627;-65
2021/01/16 12:17:52;;;;;;;40.45;28.50;;;23.50;25.20;;;;;;4986108;28;83296;-67
2021/01/16 12:20:21;;;;;;;42.42;29.08;;;24.90;24.00;;;;;;4967622;28;83747;-67
2021/01/16 12:22:50;;;;;;;43.08;29.88;;;26.20;22.80;;;;;;4967866;28;85090;-64
2021/01/16 12:25:17;;;;;;;43.95;29.23;;;27.50;21.60;;;;;;4985911;28;83461;-66
2021/01/16 12:27:50;;;;;;;36.67;28.90;;;27.30;21.60;;;;;;4967644;28;82802;-68
2021/01/16 12:30:21;;;;;;;40.60;28.90;;;25.50;23.00;;;;;;4967936;28;83395;-66
2021/01/16 12:32:48;;;;;;;48.38;30.88;;;23.40;25.00;;;;;;4967808;28;84213;-64
2021/01/16 12:35:15;;;;;;;43.50;31.10;;;22.00;26.50;;;;;;4967729;28;85546;-66
2021/01/16 12:37:42;;;;;;;43.65;30.00;;;21.60;27.20;;;;;;4967597;28;83435;-65